Herd, Kentucky
Current Conditions -  °F | °C
As of 7:53 PM on Friday 28 Nov 2014 (Local Time) from KLOZ Reporting Station
Clear Clear  
Wind Chill: 34°   Ceiling: Unl
Heat Index: 34°   Visibility: 10mi
Dew Point: 17°   Wind: 3mph
Humidity: 50%   Direction: 170°S
Pressure: 30.19"   Gusts: NA
Location:  37.346°N, 83.8503°W
Report Text: KLOZ 290053Z AUTO 17003KT 10SM CLR 01/M08 A3019 RMK AO2 SLP235 T00111083
Loading
Personal Weather Stations






























Interactive Weather Map New forecast layout! Learn more

10-Day Weather Forecast

Advertisements
Track Severe Weather on mobile